Time;durP1;ratioP1;P1;durP2;ratioP2;P2;SDS_P1;SDS_P2;PMS_P1;PMS_P2;Temp;Humidity;BMP_temperature;BMP_pressure;BME280_temperature;BME280_humidity;BME280_pressure;Samples;Min_cycle;Max_cycle;Signal;HPM_P1;HPM_P2
2022/02/26 00:00:10;;;;;;;4.72;0.40;;;;;;;;;;5064104;28;20036;-63
2022/02/26 00:02:36;;;;;;;6.18;0.70;;;;;;;;;;5061670;28;20425;-64
2022/02/26 00:05:02;;;;;;;3.83;0.65;;;;;;;;;;5066386;28;20040;-64
2022/02/26 00:07:27;;;;;;;5.03;0.57;;;;;;;;;;5059987;28;20033;-63
2022/02/26 00:09:52;;;;;;;2.50;0.30;;;;;;;;;;5059874;28;20040;-64
2022/02/26 00:12:18;;;;;;;5.65;0.45;;;;;;;;;;5072554;28;20040;-64
2022/02/26 00:14:44;;;;;;;3.90;0.30;;;;;;;;;;5063349;28;20455;-64
2022/02/26 00:17:09;;;;;;;8.10;0.80;;;;;;;;;;5065220;28;20446;-64
2022/02/26 00:19:35;;;;;;;3.92;0.40;;;;;;;;;;5062908;28;20040;-63
2022/02/26 00:22:01;;;;;;;2.25;0.40;;;;;;;;;;5064840;28;20035;-63
2022/02/26 00:24:26;;;;;;;2.28;0.40;;;;;;;;;;5066356;28;20040;-64
2022/02/26 00:26:52;;;;;;;3.20;0.20;;;;;;;;;;5060813;28;20056;-64
2022/02/26 00:29:17;;;;;;;1.95;0.20;;;;;;;;;;5065800;28;20316;-64
2022/02/26 00:31:43;;;;;;;1.55;0.20;;;;;;;;;;5059551;28;20056;-63
2022/02/26 00:34:09;;;;;;;0.90;0.10;;;;;;;;;;5062413;28;20021;-64
2022/02/26 00:36:34;;;;;;;2.28;0.20;;;;;;;;;;5071247;28;20052;-64
2022/02/26 00:39:00;;;;;;;4.88;0.40;;;;;;;;;;5054208;28;20036;-63
2022/02/26 00:41:28;;;;;;;6.05;0.63;;;;;;;;;;5060702;28;20111;-65
2022/02/26 00:43:54;;;;;;;5.97;0.47;;;;;;;;;;5063613;28;20025;-65
2022/02/26 00:46:19;;;;;;;0.98;0.28;;;;;;;;;;5058109;28;20079;-64
2022/02/26 00:51:29;;;;;;;4.70;0.45;;;;;;;;;;5066459;28;20121;-66
2022/02/26 00:53:54;;;;;;;5.40;0.13;;;;;;;;;;5061490;28;20501;-67
2022/02/26 00:56:20;;;;;;;1.27;0.10;;;;;;;;;;5064308;28;20039;-66
2022/02/26 00:58:45;;;;;;;5.93;0.63;;;;;;;;;;5067358;28;20024;-64
2022/02/26 01:01:11;;;;;;;9.05;0.75;;;;;;;;;;5065772;28;20563;-64
2022/02/26 01:03:36;;;;;;;3.03;0.35;;;;;;;;;;5062066;28;20386;-65
2022/02/26 01:06:02;;;;;;;4.70;0.38;;;;;;;;;;5063383;28;20078;-64
2022/02/26 01:08:28;;;;;;;3.05;0.20;;;;;;;;;;5059171;28;20391;-64
2022/02/26 01:10:53;;;;;;;4.47;0.47;;;;;;;;;;5067212;28;20036;-64
2022/02/26 01:13:19;;;;;;;5.78;0.50;;;;;;;;;;5065070;28;20084;-64
2022/02/26 01:15:44;;;;;;;5.05;0.40;;;;;;;;;;5066449;28;20036;-64
2022/02/26 01:18:10;;;;;;;2.38;0.28;;;;;;;;;;5064157;28;20174;-64
2022/02/26 01:20:35;;;;;;;6.32;0.40;;;;;;;;;;5066350;28;20048;-65
2022/02/26 01:23:01;;;;;;;8.73;0.80;;;;;;;;;;5062798;28;20194;-67
2022/02/26 01:25:26;;;;;;;3.80;0.30;;;;;;;;;;5057460;28;20563;-67
2022/02/26 01:27:52;;;;;;;3.83;0.15;;;;;;;;;;5066717;28;20025;-67
2022/02/26 01:30:18;;;;;;;2.08;0.43;;;;;;;;;;5065576;28;20263;-66
2022/02/26 01:32:44;;;;;;;3.75;0.30;;;;;;;;;;5060274;28;20103;-64
2022/02/26 01:35:10;;;;;;;3.60;0.52;;;;;;;;;;5068514;28;20491;-64
2022/02/26 01:37:35;;;;;;;11.68;0.93;;;;;;;;;;5061528;28;20028;-64
2022/02/26 01:40:01;;;;;;;6.55;0.65;;;;;;;;;;5063385;28;20656;-66
2022/02/26 01:42:27;;;;;;;5.90;0.65;;;;;;;;;;5061381;28;20108;-66
2022/02/26 01:44:53;;;;;;;4.80;1.25;;;;;;;;;;5061316;28;20103;-65
2022/02/26 01:47:20;;;;;;;10.50;1.02;;;;;;;;;;5059661;28;20071;-65
2022/02/26 01:49:46;;;;;;;7.97;0.60;;;;;;;;;;5057662;28;20044;-66
2022/02/26 01:52:13;;;;;;;3.85;0.40;;;;;;;;;;5059965;28;20479;-65
2022/02/26 01:54:39;;;;;;;7.22;0.38;;;;;;;;;;5064732;28;20495;-67
2022/02/26 01:57:05;;;;;;;4.65;0.45;;;;;;;;;;5065137;28;20078;-64
2022/02/26 01:59:30;;;;;;;5.65;0.70;;;;;;;;;;5060902;28;20040;-64
2022/02/26 02:01:56;;;;;;;6.85;0.80;;;;;;;;;;5059699;28;20029;-64
2022/02/26 02:04:21;;;;;;;5.47;0.40;;;;;;;;;;5060425;28;20034;-65
2022/02/26 02:06:47;;;;;;;8.70;0.73;;;;;;;;;;5059464;28;20487;-65
2022/02/26 02:09:13;;;;;;;8.02;0.68;;;;;;;;;;5061541;28;20066;-68
2022/02/26 02:11:38;;;;;;;6.10;0.43;;;;;;;;;;5064157;28;20024;-67
2022/02/26 02:14:05;;;;;;;4.72;0.43;;;;;;;;;;5062850;28;20045;-66
2022/02/26 02:16:31;;;;;;;6.78;0.50;;;;;;;;;;5064879;28;20085;-66
2022/02/26 02:18:56;;;;;;;5.18;0.60;;;;;;;;;;5063453;28;20035;-66
2022/02/26 02:21:22;;;;;;;7.80;0.98;;;;;;;;;;5063281;28;20035;-65
2022/02/26 02:23:49;;;;;;;7.47;0.68;;;;;;;;;;5064874;28;20426;-65
2022/02/26 02:26:17;;;;;;;6.10;0.50;;;;;;;;;;5064154;28;20454;-64
2022/02/26 02:28:42;;;;;;;5.88;0.75;;;;;;;;;;5068176;28;20070;-64
2022/02/26 02:31:08;;;;;;;3.88;0.38;;;;;;;;;;5067189;28;20032;-64
2022/02/26 02:33:39;;;;;;;6.68;0.38;;;;;;;;;;5068847;28;20048;-64
2022/02/26 02:36:04;;;;;;;4.97;0.47;;;;;;;;;;5070623;28;20036;-64
2022/02/26 02:38:30;;;;;;;6.28;1.30;;;;;;;;;;5066212;28;20672;-65
2022/02/26 02:40:57;;;;;;;3.60;0.30;;;;;;;;;;5063358;28;20050;-63
2022/02/26 02:43:23;;;;;;;9.80;0.63;;;;;;;;;;5064794;28;20025;-64
2022/02/26 02:45:50;;;;;;;4.20;0.32;;;;;;;;;;5064960;28;20017;-64
2022/02/26 02:48:16;;;;;;;5.75;0.38;;;;;;;;;;5065769;28;20483;-65
2022/02/26 02:50:42;;;;;;;4.07;0.40;;;;;;;;;;5061061;28;20036;-64
2022/02/26 02:53:08;;;;;;;3.50;0.40;;;;;;;;;;5066807;28;20067;-63
2022/02/26 02:55:34;;;;;;;3.15;0.50;;;;;;;;;;5068029;28;20028;-64
2022/02/26 02:58:00;;;;;;;4.40;0.60;;;;;;;;;;5060709;28;20555;-65
2022/02/26 03:00:27;;;;;;;6.55;0.50;;;;;;;;;;5062024;28;20040;-65
2022/02/26 03:02:53;;;;;;;3.97;0.40;;;;;;;;;;5064127;28;20332;-65
2022/02/26 03:05:21;;;;;;;4.07;0.20;;;;;;;;;;5060853;28;20093;-65
2022/02/26 03:07:47;;;;;;;2.42;0.40;;;;;;;;;;5065500;28;20056;-65
2022/02/26 03:10:13;;;;;;;4.22;0.35;;;;;;;;;;5066421;28;20032;-64
2022/02/26 03:12:39;;;;;;;5.10;0.43;;;;;;;;;;5064603;28;20031;-65
2022/02/26 03:15:05;;;;;;;2.85;0.40;;;;;;;;;;5068964;28;20044;-66
2022/02/26 03:17:31;;;;;;;5.20;0.30;;;;;;;;;;5065376;28;20111;-64
2022/02/26 03:19:57;;;;;;;5.18;0.43;;;;;;;;;;5062067;28;20111;-64
2022/02/26 03:22:22;;;;;;;4.03;0.25;;;;;;;;;;5069288;28;20024;-65
2022/02/26 03:24:48;;;;;;;6.53;0.52;;;;;;;;;;5065260;28;20067;-64
2022/02/26 03:27:14;;;;;;;6.55;0.45;;;;;;;;;;5069271;28;20035;-64
2022/02/26 03:29:40;;;;;;;5.28;0.60;;;;;;;;;;5061276;28;20067;-66
2022/02/26 03:32:07;;;;;;;7.97;0.52;;;;;;;;;;5061211;28;20052;-65
2022/02/26 03:34:33;;;;;;;6.45;0.35;;;;;;;;;;5063739;28;20503;-65
2022/02/26 03:37:00;;;;;;;4.80;0.40;;;;;;;;;;5067042;28;20040;-65
2022/02/26 03:39:31;;;;;;;8.25;0.30;;;;;;;;;;5065331;28;20060;-65
2022/02/26 03:42:00;;;;;;;1.60;0.30;;;;;;;;;;5066550;28;20028;-66
2022/02/26 03:44:26;;;;;;;8.70;0.32;;;;;;;;;;5058510;28;20393;-66
2022/02/26 03:46:52;;;;;;;1.48;0.20;;;;;;;;;;5069387;28;20085;-66
2022/02/26 03:49:17;;;;;;;7.22;0.73;;;;;;;;;;5059201;28;20040;-65
2022/02/26 03:51:43;;;;;;;3.85;0.10;;;;;;;;;;5065851;28;20229;-65
2022/02/26 03:54:08;;;;;;;5.30;0.30;;;;;;;;;;5065543;28;20032;-65
2022/02/26 03:56:34;;;;;;;2.53;0.63;;;;;;;;;;5064441;28;20114;-65
2022/02/26 03:59:00;;;;;;;1.73;0.22;;;;;;;;;;5063085;28;20123;-65
2022/02/26 04:01:25;;;;;;;3.20;0.20;;;;;;;;;;5065401;28;20032;-65
2022/02/26 04:03:52;;;;;;;5.32;0.30;;;;;;;;;;5059307;28;20037;-65
2022/02/26 04:06:17;;;;;;;5.22;0.65;;;;;;;;;;5069295;28;20040;-65
2022/02/26 04:08:43;;;;;;;3.88;0.32;;;;;;;;;;5062150;28;20024;-65
2022/02/26 04:11:08;;;;;;;3.40;0.22;;;;;;;;;;5062356;28;20077;-66
2022/02/26 04:13:35;;;;;;;10.38;0.55;;;;;;;;;;5060977;28;20032;-66
2022/02/26 04:16:02;;;;;;;5.85;0.35;;;;;;;;;;5062287;28;20027;-65
2022/02/26 04:18:27;;;;;;;3.42;0.30;;;;;;;;;;5060961;28;20037;-64
2022/02/26 04:20:53;;;;;;;5.30;0.40;;;;;;;;;;5067272;28;20032;-65
2022/02/26 04:23:19;;;;;;;3.00;0.13;;;;;;;;;;5058769;28;20078;-64
2022/02/26 04:25:44;;;;;;;4.38;0.30;;;;;;;;;;5069101;28;20028;-65
2022/02/26 04:28:10;;;;;;;8.18;0.30;;;;;;;;;;5063028;28;20067;-65
2022/02/26 04:30:37;;;;;;;6.50;0.45;;;;;;;;;;5067976;28;20056;-64
2022/02/26 04:33:04;;;;;;;4.20;0.40;;;;;;;;;;5062603;28;20499;-65
2022/02/26 04:35:30;;;;;;;4.38;0.30;;;;;;;;;;5063671;28;20047;-65
2022/02/26 04:37:56;;;;;;;8.85;0.77;;;;;;;;;;5065719;28;20033;-65
2022/02/26 04:40:21;;;;;;;5.10;0.35;;;;;;;;;;5062735;28;20032;-66
2022/02/26 04:42:47;;;;;;;2.97;0.20;;;;;;;;;;5068240;28;20051;-65
2022/02/26 04:45:13;;;;;;;5.28;0.25;;;;;;;;;;5061309;28;20025;-64
2022/02/26 04:47:41;;;;;;;5.55;0.30;;;;;;;;;;5062539;28;20036;-65
2022/02/26 04:50:09;;;;;;;1.55;0.15;;;;;;;;;;5062365;28;20020;-64
2022/02/26 04:52:34;;;;;;;6.45;0.40;;;;;;;;;;5067013;28;20478;-65
2022/02/26 04:55:00;;;;;;;6.32;0.30;;;;;;;;;;5064849;28;20093;-65
2022/02/26 04:57:26;;;;;;;6.47;0.68;;;;;;;;;;5062572;28;20043;-65
2022/02/26 04:59:51;;;;;;;2.63;0.30;;;;;;;;;;5065748;28;20040;-64
2022/02/26 05:02:17;;;;;;;2.35;0.20;;;;;;;;;;5067080;28;20107;-63
2022/02/26 05:04:42;;;;;;;6.57;0.75;;;;;;;;;;5060951;28;20059;-63
2022/02/26 05:07:08;;;;;;;6.80;0.32;;;;;;;;;;5062112;28;20059;-66
2022/02/26 05:09:34;;;;;;;5.57;0.70;;;;;;;;;;5061145;28;20036;-65
2022/02/26 05:11:59;;;;;;;5.20;0.60;;;;;;;;;;5061920;28;20645;-64
2022/02/26 05:14:25;;;;;;;10.45;0.52;;;;;;;;;;5065173;28;20051;-64
2022/02/26 05:16:51;;;;;;;6.53;0.38;;;;;;;;;;5063317;28;20036;-66
2022/02/26 05:19:16;;;;;;;3.53;0.45;;;;;;;;;;5057521;28;20484;-66
2022/02/26 05:21:42;;;;;;;8.25;0.57;;;;;;;;;;5062307;28;20031;-66
2022/02/26 05:24:07;;;;;;;8.32;0.80;;;;;;;;;;5058862;28;20298;-65
2022/02/26 05:26:33;;;;;;;2.95;0.45;;;;;;;;;;5059188;28;20029;-66
2022/02/26 05:28:59;;;;;;;5.93;0.45;;;;;;;;;;5062100;28;20454;-66
2022/02/26 05:31:24;;;;;;;4.78;0.75;;;;;;;;;;5055602;28;20066;-63
2022/02/26 05:33:50;;;;;;;2.65;0.32;;;;;;;;;;5063533;28;20043;-65
2022/02/26 05:36:15;;;;;;;11.93;0.75;;;;;;;;;;5057739;28;20032;-65
2022/02/26 05:38:42;;;;;;;5.10;0.25;;;;;;;;;;5059625;28;20055;-65
2022/02/26 05:41:07;;;;;;;8.93;0.35;;;;;;;;;;5062591;28;20032;-65
2022/02/26 05:43:36;;;;;;;5.82;0.60;;;;;;;;;;5065998;28;20077;-65
2022/02/26 05:46:02;;;;;;;5.53;0.50;;;;;;;;;;5063422;28;20038;-64
2022/02/26 05:48:28;;;;;;;8.27;1.17;;;;;;;;;;5064563;28;20251;-65
2022/02/26 05:50:53;;;;;;;8.85;0.63;;;;;;;;;;5058959;28;20517;-65
2022/02/26 05:53:19;;;;;;;5.85;0.40;;;;;;;;;;5059225;28;20043;-65
2022/02/26 05:55:44;;;;;;;6.07;0.50;;;;;;;;;;5061434;28;20028;-65
2022/02/26 05:58:10;;;;;;;4.22;0.30;;;;;;;;;;5058128;28;20042;-65
2022/02/26 06:00:36;;;;;;;6.45;0.47;;;;;;;;;;5061009;28;20032;-66
2022/02/26 06:03:01;;;;;;;6.57;0.93;;;;;;;;;;5060356;28;20058;-65
2022/02/26 06:05:27;;;;;;;2.20;0.17;;;;;;;;;;5063861;28;20040;-64
2022/02/26 06:07:52;;;;;;;3.83;0.30;;;;;;;;;;5057233;28;20025;-63
2022/02/26 06:10:17;;;;;;;6.07;0.52;;;;;;;;;;5058991;28;20527;-66
2022/02/26 06:12:43;;;;;;;6.75;0.35;;;;;;;;;;5065332;28;20032;-66
2022/02/26 06:15:09;;;;;;;5.93;0.70;;;;;;;;;;5057219;28;20156;-64
2022/02/26 06:17:36;;;;;;;4.38;0.45;;;;;;;;;;5061176;28;20064;-66
2022/02/26 06:20:04;;;;;;;3.00;0.38;;;;;;;;;;5062232;28;20071;-66
2022/02/26 06:22:29;;;;;;;8.02;0.60;;;;;;;;;;5060757;28;20025;-65
2022/02/26 06:24:55;;;;;;;2.58;0.30;;;;;;;;;;5059548;28;20035;-64
2022/02/26 06:27:21;;;;;;;3.95;0.32;;;;;;;;;;5057099;28;20493;-65
2022/02/26 06:29:46;;;;;;;3.00;0.35;;;;;;;;;;5064547;28;20408;-65
2022/02/26 06:32:13;;;;;;;6.20;1.13;;;;;;;;;;5062829;28;20039;-64
2022/02/26 06:34:39;;;;;;;7.03;0.50;;;;;;;;;;5058444;28;20024;-65
2022/02/26 06:37:04;;;;;;;6.20;0.35;;;;;;;;;;5061076;28;20035;-65
2022/02/26 06:39:30;;;;;;;4.22;0.47;;;;;;;;;;5058736;28;20128;-65
2022/02/26 06:41:56;;;;;;;10.82;0.90;;;;;;;;;;5066013;28;20488;-63
2022/02/26 06:44:21;;;;;;;11.93;0.82;;;;;;;;;;5069383;28;20040;-65
2022/02/26 06:46:47;;;;;;;3.17;0.35;;;;;;;;;;5065576;28;20116;-65
2022/02/26 06:49:14;;;;;;;4.55;0.65;;;;;;;;;;5061062;28;20103;-66
2022/02/26 06:51:39;;;;;;;5.57;0.40;;;;;;;;;;5060941;28;20464;-64
2022/02/26 06:54:05;;;;;;;4.70;0.30;;;;;;;;;;5058253;28;20075;-66
2022/02/26 06:56:32;;;;;;;7.47;0.73;;;;;;;;;;5057658;28;20086;-66
2022/02/26 06:58:57;;;;;;;6.97;0.47;;;;;;;;;;5062975;28;20426;-66
2022/02/26 07:01:23;;;;;;;13.20;0.80;;;;;;;;;;5057833;28;20242;-65
2022/02/26 07:03:48;;;;;;;8.88;0.85;;;;;;;;;;5060752;28;20471;-64
2022/02/26 07:06:14;;;;;;;6.35;0.55;;;;;;;;;;5062890;28;20032;-64
2022/02/26 07:08:39;;;;;;;5.80;0.65;;;;;;;;;;5060240;28;20486;-64
2022/02/26 07:11:05;;;;;;;4.57;0.55;;;;;;;;;;5069688;28;20560;-64
2022/02/26 07:13:31;;;;;;;6.53;1.40;;;;;;;;;;5066356;28;20033;-63
2022/02/26 07:15:58;;;;;;;12.50;0.80;;;;;;;;;;5073284;28;20032;-63
2022/02/26 07:18:23;;;;;;;7.50;0.98;;;;;;;;;;5065366;28;20035;-64
2022/02/26 07:20:49;;;;;;;4.65;0.50;;;;;;;;;;5064394;28;20414;-63
2022/02/26 07:23:14;;;;;;;3.70;0.73;;;;;;;;;;5070070;28;20041;-65
2022/02/26 07:25:42;;;;;;;6.00;0.63;;;;;;;;;;5058610;28;20039;-65
2022/02/26 07:28:09;;;;;;;4.93;0.32;;;;;;;;;;5067506;28;20491;-64
2022/02/26 07:30:36;;;;;;;4.03;0.50;;;;;;;;;;5065927;28;20064;-65
2022/02/26 07:33:01;;;;;;;8.50;0.50;;;;;;;;;;5066350;28;20449;-65
2022/02/26 07:35:27;;;;;;;8.90;1.00;;;;;;;;;;5063343;28;20107;-67
2022/02/26 07:37:52;;;;;;;6.88;0.68;;;;;;;;;;5066012;28;20394;-65
2022/02/26 07:40:18;;;;;;;5.03;0.35;;;;;;;;;;5063509;28;20131;-65
2022/02/26 07:42:43;;;;;;;5.10;0.85;;;;;;;;;;5059749;28;20113;-65
2022/02/26 07:45:09;;;;;;;6.68;0.57;;;;;;;;;;5060497;28;20033;-65
2022/02/26 07:47:35;;;;;;;4.78;0.50;;;;;;;;;;5068207;28;20040;-65
2022/02/26 07:50:00;;;;;;;5.53;0.73;;;;;;;;;;5067342;28;20028;-64
2022/02/26 07:52:30;;;;;;;5.75;0.35;;;;;;;;;;5063524;28;20032;-65
2022/02/26 07:54:55;;;;;;;5.53;1.05;;;;;;;;;;5064437;28;20528;-66
2022/02/26 07:57:21;;;;;;;4.18;0.85;;;;;;;;;;5060851;28;20138;-65
2022/02/26 07:59:46;;;;;;;7.22;0.80;;;;;;;;;;5058974;28;20028;-65
2022/02/26 08:02:12;;;;;;;4.63;0.65;;;;;;;;;;5060872;28;20085;-64
2022/02/26 08:04:37;;;;;;;4.80;0.40;;;;;;;;;;5063486;28;20391;-65
2022/02/26 08:07:06;;;;;;;5.10;0.70;;;;;;;;;;5063662;28;20044;-65
2022/02/26 08:09:31;;;;;;;6.63;0.60;;;;;;;;;;5063755;28;20039;-65
2022/02/26 08:11:57;;;;;;;6.70;0.63;;;;;;;;;;5065005;28;20584;-65
2022/02/26 08:14:23;;;;;;;10.88;1.35;;;;;;;;;;5065266;28;20115;-65
2022/02/26 08:16:48;;;;;;;12.25;1.02;;;;;;;;;;5059243;28;20089;-67
2022/02/26 08:19:14;;;;;;;5.90;0.88;;;;;;;;;;5062277;28;20056;-65
2022/02/26 08:21:40;;;;;;;4.72;0.30;;;;;;;;;;5070279;28;20461;-63
2022/02/26 08:24:06;;;;;;;5.78;0.70;;;;;;;;;;5061721;28;20039;-65
2022/02/26 08:26:32;;;;;;;8.45;0.55;;;;;;;;;;5064376;28;20024;-66
2022/02/26 08:28:58;;;;;;;3.90;0.98;;;;;;;;;;5064720;28;20041;-66
2022/02/26 08:31:24;;;;;;;6.55;1.05;;;;;;;;;;5058837;28;20047;-64
2022/02/26 08:33:49;;;;;;;8.30;0.80;;;;;;;;;;5063142;28;20039;-64
2022/02/26 08:36:16;;;;;;;4.72;0.77;;;;;;;;;;5065220;28;20060;-64
2022/02/26 08:38:41;;;;;;;5.20;0.47;;;;;;;;;;5060893;28;20038;-65
2022/02/26 08:41:07;;;;;;;11.60;0.73;;;;;;;;;;5064106;28;20036;-64
2022/02/26 08:43:34;;;;;;;5.28;0.50;;;;;;;;;;5062947;28;20012;-64
2022/02/26 08:46:00;;;;;;;6.10;0.70;;;;;;;;;;5062468;28;20090;-67
2022/02/26 08:48:25;;;;;;;4.30;0.55;;;;;;;;;;5057304;28;20222;-65
2022/02/26 08:50:51;;;;;;;9.55;0.70;;;;;;;;;;5061921;28;20463;-64
2022/02/26 08:53:17;;;;;;;9.68;0.70;;;;;;;;;;5062986;28;20404;-64
2022/02/26 08:55:43;;;;;;;9.93;0.68;;;;;;;;;;5066370;28;20382;-63
2022/02/26 08:58:08;;;;;;;6.70;0.60;;;;;;;;;;5061632;28;20024;-65
2022/02/26 09:00:35;;;;;;;7.93;0.55;;;;;;;;;;5086449;28;20036;-65
2022/02/26 09:03:00;;;;;;;2.67;1.00;;;;;;;;;;5059740;28;20028;-66
2022/02/26 09:05:26;;;;;;;9.35;1.02;;;;;;;;;;5063564;28;20036;-66
2022/02/26 09:07:51;;;;;;;5.20;1.30;;;;;;;;;;5069904;28;20028;-66
2022/02/26 09:10:17;;;;;;;10.82;0.90;;;;;;;;;;5062044;28;20032;-66
2022/02/26 09:12:43;;;;;;;9.52;0.55;;;;;;;;;;5067857;28;20686;-67
2022/02/26 09:15:09;;;;;;;4.53;1.42;;;;;;;;;;5067357;28;20028;-67
2022/02/26 09:17:34;;;;;;;7.32;0.80;;;;;;;;;;5067882;28;20067;-68
2022/02/26 09:20:00;;;;;;;12.82;0.77;;;;;;;;;;5064582;28;20044;-68
2022/02/26 09:22:26;;;;;;;5.57;1.02;;;;;;;;;;5060779;28;20277;-68
2022/02/26 09:24:51;;;;;;;4.20;0.40;;;;;;;;;;5064934;28;20055;-69
2022/02/26 09:27:17;;;;;;;2.70;0.28;;;;;;;;;;5064944;28;20433;-67
2022/02/26 09:29:42;;;;;;;7.18;0.32;;;;;;;;;;5064979;28;20568;-63
2022/02/26 09:32:08;;;;;;;4.40;0.50;;;;;;;;;;5068904;28;20456;-62
2022/02/26 09:34:34;;;;;;;4.57;0.47;;;;;;;;;;5058542;28;20437;-63
2022/02/26 09:36:59;;;;;;;7.70;0.55;;;;;;;;;;5065408;28;20128;-62
2022/02/26 09:39:25;;;;;;;7.53;0.40;;;;;;;;;;5059059;28;20036;-63
2022/02/26 09:41:51;;;;;;;7.40;0.57;;;;;;;;;;5063553;28;20033;-63
2022/02/26 09:44:19;;;;;;;3.75;0.35;;;;;;;;;;5066371;28;20035;-60
2022/02/26 09:46:44;;;;;;;10.32;0.55;;;;;;;;;;5059709;28;20028;-62
2022/02/26 09:49:10;;;;;;;5.75;0.68;;;;;;;;;;5082635;28;20035;-62
2022/02/26 09:51:40;;;;;;;7.30;0.50;;;;;;;;;;5066456;28;20236;-64
2022/02/26 09:54:05;;;;;;;6.05;0.63;;;;;;;;;;5069632;28;20123;-62
2022/02/26 09:56:31;;;;;;;4.18;0.50;;;;;;;;;;5064880;28;20111;-62
2022/02/26 09:58:56;;;;;;;10.73;1.35;;;;;;;;;;5065868;28;20033;-63
2022/02/26 10:01:22;;;;;;;9.07;1.08;;;;;;;;;;5070411;28;20028;-63
2022/02/26 10:03:47;;;;;;;7.85;0.82;;;;;;;;;;5067699;28;20119;-60
2022/02/26 10:06:16;;;;;;;4.30;0.80;;;;;;;;;;5059505;28;20040;-60
2022/02/26 10:08:49;;;;;;;5.05;0.85;;;;;;;;;;5064037;28;20127;-62
2022/02/26 10:11:26;;;;;;;6.35;0.63;;;;;;;;;;5055857;28;20352;-59
2022/02/26 10:14:20;;;;;;;7.20;0.50;;;;;;;;;;5060813;28;20044;-61
2022/02/26 10:16:52;;;;;;;3.92;0.63;;;;;;;;;;5071442;28;20044;-61
2022/02/26 10:19:19;;;;;;;8.93;0.80;;;;;;;;;;5066353;28;20425;-61
2022/02/26 10:21:44;;;;;;;7.88;1.05;;;;;;;;;;5062276;28;20039;-61
2022/02/26 10:24:14;;;;;;;10.55;1.10;;;;;;;;;;5064154;28;20044;-61
2022/02/26 10:26:44;;;;;;;7.60;0.80;;;;;;;;;;5066155;28;20046;-61
2022/02/26 10:29:11;;;;;;;8.15;1.05;;;;;;;;;;5064669;28;20045;-61
2022/02/26 10:31:51;;;;;;;11.30;1.08;;;;;;;;;;5068031;28;20119;-62
2022/02/26 10:34:46;;;;;;;9.50;1.25;;;;;;;;;;5059743;28;20036;-62
2022/02/26 10:37:14;;;;;;;5.30;0.60;;;;;;;;;;5051784;28;20419;-62
2022/02/26 10:39:47;;;;;;;10.55;1.30;;;;;;;;;;5061496;28;20047;-61
2022/02/26 10:42:22;;;;;;;3.95;0.73;;;;;;;;;;5051266;28;20032;-62
2022/02/26 10:45:02;;;;;;;6.18;0.63;;;;;;;;;;5060004;28;20031;-61
2022/02/26 10:47:29;;;;;;;2.90;0.50;;;;;;;;;;5061963;28;20029;-60
2022/02/26 10:49:55;;;;;;;9.68;0.82;;;;;;;;;;5064096;28;20093;-62
2022/02/26 10:52:21;;;;;;;7.90;1.15;;;;;;;;;;5066404;28;20041;-60
2022/02/26 10:54:55;;;;;;;7.65;1.15;;;;;;;;;;5060703;28;20032;-61
2022/02/26 10:57:21;;;;;;;4.03;0.57;;;;;;;;;;5072137;28;20441;-62
2022/02/26 10:59:53;;;;;;;6.85;0.93;;;;;;;;;;5063319;28;20036;-61
2022/02/26 11:02:23;;;;;;;9.18;0.50;;;;;;;;;;5070071;28;20028;-61
2022/02/26 11:04:56;;;;;;;5.05;0.32;;;;;;;;;;5068983;28;20029;-61
2022/02/26 11:07:22;;;;;;;3.50;0.52;;;;;;;;;;5063086;28;20043;-62
2022/02/26 11:09:52;;;;;;;7.53;0.35;;;;;;;;;;5062690;28;20028;-63
2022/02/26 11:12:18;;;;;;;5.25;0.80;;;;;;;;;;5066153;28;20561;-62
2022/02/26 11:14:54;;;;;;;3.17;0.68;;;;;;;;;;5069162;28;20041;-62
2022/02/26 11:17:22;;;;;;;4.13;0.73;;;;;;;;;;5071082;28;20024;-62
2022/02/26 11:19:50;;;;;;;9.82;1.15;;;;;;;;;;5066388;28;20037;-62
2022/02/26 11:22:16;;;;;;;7.75;0.57;;;;;;;;;;5062166;28;20032;-62
2022/02/26 11:24:43;;;;;;;12.00;0.82;;;;;;;;;;5066706;28;20032;-62
2022/02/26 11:27:08;;;;;;;9.85;0.65;;;;;;;;;;5065055;28;20048;-61
2022/02/26 11:29:34;;;;;;;11.27;1.30;;;;;;;;;;5068260;28;20447;-62
2022/02/26 11:31:59;;;;;;;13.07;0.90;;;;;;;;;;5068227;28;20051;-62
2022/02/26 11:34:27;;;;;;;6.03;0.70;;;;;;;;;;5065329;28;20029;-60
2022/02/26 11:37:01;;;;;;;7.90;1.13;;;;;;;;;;5066945;28;20502;-62
2022/02/26 11:39:41;;;;;;;7.10;1.13;;;;;;;;;;5062668;28;20591;-61
2022/02/26 11:42:19;;;;;;;14.60;0.98;;;;;;;;;;5070240;28;20111;-62
2022/02/26 11:45:02;;;;;;;8.73;1.33;;;;;;;;;;5069455;28;20029;-61
2022/02/26 11:47:38;;;;;;;5.97;0.63;;;;;;;;;;5066430;28;20434;-61
2022/02/26 11:50:06;;;;;;;16.20;1.23;;;;;;;;;;5064800;28;20020;-61
2022/02/26 11:52:41;;;;;;;22.48;0.93;;;;;;;;;;5069289;28;20032;-61
2022/02/26 11:55:31;;;;;;;11.07;1.17;;;;;;;;;;5063837;28;20059;-61
2022/02/26 11:58:38;;;;;;;10.90;1.08;;;;;;;;;;5069050;28;20418;-61
2022/02/26 12:01:14;;;;;;;9.18;0.90;;;;;;;;;;5066116;28;20028;-60
2022/02/26 12:03:49;;;;;;;10.40;0.93;;;;;;;;;;5064474;28;20395;-59
2022/02/26 12:06:16;;;;;;;10.02;1.10;;;;;;;;;;5058934;28;20098;-60
2022/02/26 12:08:53;;;;;;;6.93;1.20;;;;;;;;;;5061968;28;20032;-60
2022/02/26 12:11:31;;;;;;;8.77;1.15;;;;;;;;;;5062259;28;20471;-61
2022/02/26 12:14:02;;;;;;;7.93;0.90;;;;;;;;;;5061300;28;20502;-60
2022/02/26 12:16:35;;;;;;;8.13;1.13;;;;;;;;;;5058451;28;20024;-64
2022/02/26 12:19:23;;;;;;;15.65;1.98;;;;;;;;;;5064461;28;20263;-61
2022/02/26 12:21:51;;;;;;;7.95;1.27;;;;;;;;;;5063206;28;20031;-60
2022/02/26 12:24:24;;;;;;;8.27;1.27;;;;;;;;;;5063102;28;20024;-63
2022/02/26 12:26:59;;;;;;;11.65;1.98;;;;;;;;;;5066256;28;20107;-61
2022/02/26 12:29:42;;;;;;;11.48;1.58;;;;;;;;;;5063425;28;20052;-57
2022/02/26 12:32:11;;;;;;;18.65;1.70;;;;;;;;;;5064041;28;20059;-61
2022/02/26 12:35:03;;;;;;;12.35;1.05;;;;;;;;;;5061271;28;20563;-60
2022/02/26 12:37:37;;;;;;;14.13;1.73;;;;;;;;;;5057016;28;20044;-59
2022/02/26 12:40:18;;;;;;;15.73;1.40;;;;;;;;;;5068888;28;20036;-58
2022/02/26 12:42:46;;;;;;;17.73;1.75;;;;;;;;;;5068290;28;20028;-60
2022/02/26 12:45:19;;;;;;;14.63;1.60;;;;;;;;;;5063641;28;20032;-61
2022/02/26 12:47:46;;;;;;;13.75;1.92;;;;;;;;;;5062081;28;20031;-61
2022/02/26 12:50:16;;;;;;;9.32;1.23;;;;;;;;;;5064877;28;20851;-62
2022/02/26 12:52:43;;;;;;;7.57;1.08;;;;;;;;;;5066791;28;20024;-60
2022/02/26 12:55:14;;;;;;;10.63;1.40;;;;;;;;;;5072592;28;20036;-61
2022/02/26 12:57:42;;;;;;;8.95;1.20;;;;;;;;;;5063049;28;20035;-61
2022/02/26 13:00:10;;;;;;;8.90;1.38;;;;;;;;;;5067363;28;20121;-66
2022/02/26 13:02:51;;;;;;;7.85;1.13;;;;;;;;;;5048814;28;20124;-61
2022/02/26 13:05:16;;;;;;;7.95;1.27;;;;;;;;;;5067155;28;20067;-62
2022/02/26 13:07:42;;;;;;;18.90;1.50;;;;;;;;;;5069549;28;20459;-61
2022/02/26 13:10:08;;;;;;;8.35;1.23;;;;;;;;;;5067454;28;20518;-62
2022/02/26 13:12:34;;;;;;;10.80;1.02;;;;;;;;;;5068070;28;20432;-61
2022/02/26 13:15:05;;;;;;;8.88;1.10;;;;;;;;;;5069939;28;20025;-58
2022/02/26 13:17:33;;;;;;;9.45;1.13;;;;;;;;;;5064435;28;20087;-61
2022/02/26 13:20:01;;;;;;;14.07;1.20;;;;;;;;;;5072178;28;20031;-61
2022/02/26 13:22:28;;;;;;;12.90;1.35;;;;;;;;;;5064775;28;20032;-61
2022/02/26 13:24:53;;;;;;;11.40;1.08;;;;;;;;;;5065972;28;20047;-61
2022/02/26 13:27:21;;;;;;;14.57;1.73;;;;;;;;;;5065705;28;20479;-61
2022/02/26 13:29:50;;;;;;;5.82;0.98;;;;;;;;;;5062802;28;20388;-59
2022/02/26 13:32:24;;;;;;;17.98;2.00;;;;;;;;;;5062189;28;20036;-61
2022/02/26 13:34:55;;;;;;;7.53;1.50;;;;;;;;;;5065798;28;20086;-60
2022/02/26 13:37:22;;;;;;;12.05;1.60;;;;;;;;;;5064456;28;20024;-61
2022/02/26 13:39:49;;;;;;;10.65;0.98;;;;;;;;;;5080298;28;20074;-61
2022/02/26 13:42:25;;;;;;;19.52;2.03;;;;;;;;;;5065622;28;20095;-61
2022/02/26 13:44:59;;;;;;;11.30;1.90;;;;;;;;;;5065784;28;20487;-61
2022/02/26 13:47:25;;;;;;;18.45;2.50;;;;;;;;;;5063452;28;20043;-61
2022/02/26 13:49:56;;;;;;;21.98;2.70;;;;;;;;;;5065911;28;20036;-60
2022/02/26 13:52:23;;;;;;;9.90;1.50;;;;;;;;;;5060514;28;20060;-61
2022/02/26 13:54:51;;;;;;;15.45;2.33;;;;;;;;;;5064486;28;20357;-61
2022/02/26 13:57:22;;;;;;;15.35;2.17;;;;;;;;;;5060289;28;20029;-62
2022/02/26 13:59:50;;;;;;;18.02;2.35;;;;;;;;;;5066323;28;20107;-61
2022/02/26 14:02:23;;;;;;;26.60;2.72;;;;;;;;;;5062327;28;20033;-61
2022/02/26 14:04:56;;;;;;;15.30;1.60;;;;;;;;;;5067377;28;20654;-61
2022/02/26 14:07:42;;;;;;;17.80;1.98;;;;;;;;;;5063298;28;20040;-61
2022/02/26 14:10:13;;;;;;;14.80;1.75;;;;;;;;;;5065793;28;20510;-62
2022/02/26 14:12:41;;;;;;;12.15;1.90;;;;;;;;;;5065104;28;20403;-61
2022/02/26 14:15:07;;;;;;;25.50;2.03;;;;;;;;;;5064921;28;20131;-60
2022/02/26 14:17:34;;;;;;;9.43;1.90;;;;;;;;;;5066527;28;20056;-65
2022/02/26 14:20:00;;;;;;;11.15;1.42;;;;;;;;;;5064909;28;20040;-62
2022/02/26 14:22:31;;;;;;;8.30;1.52;;;;;;;;;;5067560;28;20025;-62
2022/02/26 14:25:05;;;;;;;19.60;2.38;;;;;;;;;;5066407;28;20107;-61
2022/02/26 14:27:31;;;;;;;11.07;1.58;;;;;;;;;;5062092;28;20067;-61
2022/02/26 14:30:12;;;;;;;14.43;1.90;;;;;;;;;;5065784;28;20507;-60
2022/02/26 14:32:41;;;;;;;17.45;2.50;;;;;;;;;;5057762;28;20077;-61
2022/02/26 14:35:08;;;;;;;16.85;1.98;;;;;;;;;;5065776;28;20032;-62
2022/02/26 14:37:34;;;;;;;8.38;1.42;;;;;;;;;;5065978;28;20225;-62
2022/02/26 14:40:02;;;;;;;12.55;1.38;;;;;;;;;;5061581;28;20198;-61
2022/02/26 14:42:28;;;;;;;16.02;1.48;;;;;;;;;;5065298;28;20037;-62
2022/02/26 14:44:54;;;;;;;13.43;1.40;;;;;;;;;;5063898;28;20032;-61